sensor_id;sensor_type;location;lat;lon;timestamp;P1;durP1;ratioP1;P2;durP2;ratioP2
14100;SDS011;7127;49.372;8.166;2022-08-19T00:01:16;9.27;;;8.47;;
14100;SDS011;7127;49.372;8.166;2022-08-19T00:03:44;8.43;;;7.73;;
14100;SDS011;7127;49.372;8.166;2022-08-19T00:06:11;8.40;;;7.70;;
14100;SDS011;7127;49.372;8.166;2022-08-19T00:08:38;8.00;;;7.30;;
14100;SDS011;7127;49.372;8.166;2022-08-19T00:11:06;7.97;;;7.27;;
14100;SDS011;7127;49.372;8.166;2022-08-19T00:13:33;8.40;;;7.67;;
14100;SDS011;7127;49.372;8.166;2022-08-19T00:16:01;9.60;;;8.70;;
14100;SDS011;7127;49.372;8.166;2022-08-19T00:18:30;8.87;;;8.07;;
14100;SDS011;7127;49.372;8.166;2022-08-19T00:20:57;8.47;;;7.77;;
14100;SDS011;7127;49.372;8.166;2022-08-19T00:23:25;9.27;;;8.47;;
14100;SDS011;7127;49.372;8.166;2022-08-19T00:25:52;9.03;;;8.17;;
14100;SDS011;7127;49.372;8.166;2022-08-19T00:28:20;9.30;;;8.50;;
14100;SDS011;7127;49.372;8.166;2022-08-19T00:30:47;8.23;;;7.53;;
14100;SDS011;7127;49.372;8.166;2022-08-19T00:33:16;7.93;;;7.23;;
14100;SDS011;7127;49.372;8.166;2022-08-19T00:35:45;7.00;;;6.40;;
14100;SDS011;7127;49.372;8.166;2022-08-19T00:38:12;8.20;;;7.40;;
14100;SDS011;7127;49.372;8.166;2022-08-19T00:40:42;7.30;;;6.60;;
14100;SDS011;7127;49.372;8.166;2022-08-19T00:43:12;8.60;;;7.80;;
14100;SDS011;7127;49.372;8.166;2022-08-19T00:45:39;8.53;;;7.73;;
14100;SDS011;7127;49.372;8.166;2022-08-19T00:48:08;7.90;;;7.30;;
14100;SDS011;7127;49.372;8.166;2022-08-19T00:50:36;8.77;;;7.97;;
14100;SDS011;7127;49.372;8.166;2022-08-19T00:53:09;9.50;;;8.70;;
14100;SDS011;7127;49.372;8.166;2022-08-19T00:55:40;9.20;;;8.40;;
14100;SDS011;7127;49.372;8.166;2022-08-19T00:58:09;10.87;;;9.87;;
14100;SDS011;7127;49.372;8.166;2022-08-19T01:00:38;9.20;;;8.40;;
14100;SDS011;7127;49.372;8.166;2022-08-19T01:03:06;11.00;;;9.37;;
14100;SDS011;7127;49.372;8.166;2022-08-19T01:05:35;10.13;;;9.17;;
14100;SDS011;7127;49.372;8.166;2022-08-19T01:08:04;8.50;;;7.80;;
14100;SDS011;7127;49.372;8.166;2022-08-19T01:10:36;11.30;;;8.47;;
14100;SDS011;7127;49.372;8.166;2022-08-19T01:13:05;10.10;;;9.20;;
14100;SDS011;7127;49.372;8.166;2022-08-19T01:15:33;8.90;;;8.17;;
14100;SDS011;7127;49.372;8.166;2022-08-19T01:18:06;8.47;;;7.67;;
14100;SDS011;7127;49.372;8.166;2022-08-19T01:20:36;9.17;;;8.37;;
14100;SDS011;7127;49.372;8.166;2022-08-19T01:23:05;8.67;;;7.97;;
14100;SDS011;7127;49.372;8.166;2022-08-19T01:25:34;9.43;;;8.60;;
14100;SDS011;7127;49.372;8.166;2022-08-19T01:28:06;10.23;;;9.23;;
14100;SDS011;7127;49.372;8.166;2022-08-19T01:30:34;10.83;;;9.83;;
14100;SDS011;7127;49.372;8.166;2022-08-19T01:33:02;9.23;;;8.43;;
14100;SDS011;7127;49.372;8.166;2022-08-19T01:35:31;8.47;;;7.67;;
14100;SDS011;7127;49.372;8.166;2022-08-19T01:37:59;9.30;;;8.50;;
14100;SDS011;7127;49.372;8.166;2022-08-19T01:40:35;8.80;;;8.00;;
14100;SDS011;7127;49.372;8.166;2022-08-19T01:43:05;7.40;;;6.80;;
14100;SDS011;7127;49.372;8.166;2022-08-19T01:45:33;8.13;;;7.43;;
14100;SDS011;7127;49.372;8.166;2022-08-19T01:48:01;9.13;;;8.37;;
14100;SDS011;7127;49.372;8.166;2022-08-19T01:50:28;8.23;;;7.47;;
14100;SDS011;7127;49.372;8.166;2022-08-19T01:52:57;9.13;;;8.33;;
14100;SDS011;7127;49.372;8.166;2022-08-19T01:55:25;9.30;;;8.00;;
14100;SDS011;7127;49.372;8.166;2022-08-19T01:57:54;8.77;;;7.97;;
14100;SDS011;7127;49.372;8.166;2022-08-19T02:00:24;10.40;;;9.40;;
14100;SDS011;7127;49.372;8.166;2022-08-19T02:02:54;8.70;;;7.90;;
14100;SDS011;7127;49.372;8.166;2022-08-19T02:05:21;9.80;;;8.80;;
14100;SDS011;7127;49.372;8.166;2022-08-19T02:07:49;10.00;;;8.80;;
14100;SDS011;7127;49.372;8.166;2022-08-19T02:10:17;8.40;;;7.60;;
14100;SDS011;7127;49.372;8.166;2022-08-19T02:12:47;9.07;;;8.27;;
14100;SDS011;7127;49.372;8.166;2022-08-19T02:15:16;8.53;;;7.80;;
14100;SDS011;7127;49.372;8.166;2022-08-19T02:17:45;8.27;;;7.57;;
14100;SDS011;7127;49.372;8.166;2022-08-19T02:20:13;9.70;;;8.70;;
14100;SDS011;7127;49.372;8.166;2022-08-19T02:22:41;7.93;;;7.13;;
14100;SDS011;7127;49.372;8.166;2022-08-19T02:25:09;8.30;;;7.60;;
14100;SDS011;7127;49.372;8.166;2022-08-19T02:27:36;8.07;;;7.27;;
14100;SDS011;7127;49.372;8.166;2022-08-19T02:30:05;7.83;;;7.13;;
14100;SDS011;7127;49.372;8.166;2022-08-19T02:32:35;8.40;;;7.70;;
14100;SDS011;7127;49.372;8.166;2022-08-19T02:35:02;10.37;;;9.37;;
14100;SDS011;7127;49.372;8.166;2022-08-19T02:37:30;9.00;;;8.07;;
14100;SDS011;7127;49.372;8.166;2022-08-19T02:40:15;8.80;;;8.00;;
14100;SDS011;7127;49.372;8.166;2022-08-19T02:42:43;9.60;;;8.07;;
14100;SDS011;7127;49.372;8.166;2022-08-19T02:45:10;10.00;;;9.20;;
14100;SDS011;7127;49.372;8.166;2022-08-19T02:47:39;9.50;;;8.50;;
14100;SDS011;7127;49.372;8.166;2022-08-19T02:50:08;8.53;;;7.73;;
14100;SDS011;7127;49.372;8.166;2022-08-19T02:52:36;7.60;;;7.00;;
14100;SDS011;7127;49.372;8.166;2022-08-19T02:55:03;8.13;;;7.43;;
14100;SDS011;7127;49.372;8.166;2022-08-19T02:57:31;9.23;;;8.40;;
14100;SDS011;7127;49.372;8.166;2022-08-19T02:59:59;9.43;;;8.57;;
14100;SDS011;7127;49.372;8.166;2022-08-19T03:02:26;8.73;;;7.97;;
14100;SDS011;7127;49.372;8.166;2022-08-19T03:04:55;8.20;;;7.47;;
14100;SDS011;7127;49.372;8.166;2022-08-19T03:07:22;10.00;;;9.13;;
14100;SDS011;7127;49.372;8.166;2022-08-19T03:09:49;8.40;;;7.70;;
14100;SDS011;7127;49.372;8.166;2022-08-19T03:12:16;7.10;;;6.50;;
14100;SDS011;7127;49.372;8.166;2022-08-19T03:14:43;8.00;;;7.30;;
14100;SDS011;7127;49.372;8.166;2022-08-19T03:17:11;8.70;;;7.87;;
14100;SDS011;7127;49.372;8.166;2022-08-19T03:19:39;8.83;;;8.03;;
14100;SDS011;7127;49.372;8.166;2022-08-19T03:22:07;8.77;;;7.97;;
14100;SDS011;7127;49.372;8.166;2022-08-19T03:24:35;8.03;;;7.33;;
14100;SDS011;7127;49.372;8.166;2022-08-19T03:27:02;7.97;;;7.27;;
14100;SDS011;7127;49.372;8.166;2022-08-19T03:29:30;7.77;;;7.07;;
14100;SDS011;7127;49.372;8.166;2022-08-19T03:31:58;8.10;;;7.40;;
14100;SDS011;7127;49.372;8.166;2022-08-19T03:34:28;7.70;;;6.83;;
14100;SDS011;7127;49.372;8.166;2022-08-19T03:36:57;7.80;;;7.10;;
14100;SDS011;7127;49.372;8.166;2022-08-19T03:39:27;7.67;;;6.97;;
14100;SDS011;7127;49.372;8.166;2022-08-19T03:41:55;7.93;;;7.20;;
14100;SDS011;7127;49.372;8.166;2022-08-19T03:44:27;7.43;;;6.80;;
14100;SDS011;7127;49.372;8.166;2022-08-19T03:46:58;6.97;;;6.37;;
14100;SDS011;7127;49.372;8.166;2022-08-19T03:49:26;7.03;;;6.43;;
14100;SDS011;7127;49.372;8.166;2022-08-19T03:51:55;7.37;;;6.70;;
14100;SDS011;7127;49.372;8.166;2022-08-19T03:54:25;7.27;;;6.63;;
14100;SDS011;7127;49.372;8.166;2022-08-19T03:56:55;8.20;;;7.50;;
14100;SDS011;7127;49.372;8.166;2022-08-19T03:59:24;8.03;;;7.23;;
14100;SDS011;7127;49.372;8.166;2022-08-19T04:01:53;7.17;;;6.53;;
14100;SDS011;7127;49.372;8.166;2022-08-19T04:04:22;7.27;;;6.57;;
14100;SDS011;7127;49.372;8.166;2022-08-19T04:06:50;9.17;;;8.00;;
14100;SDS011;7127;49.372;8.166;2022-08-19T04:09:17;7.47;;;6.83;;
14100;SDS011;7127;49.372;8.166;2022-08-19T04:11:47;8.63;;;7.93;;
14100;SDS011;7127;49.372;8.166;2022-08-19T04:14:20;8.63;;;7.87;;
14100;SDS011;7127;49.372;8.166;2022-08-19T04:16:50;9.40;;;8.13;;
14100;SDS011;7127;49.372;8.166;2022-08-19T04:19:18;7.93;;;7.23;;
14100;SDS011;7127;49.372;8.166;2022-08-19T04:21:46;7.27;;;6.67;;
14100;SDS011;7127;49.372;8.166;2022-08-19T04:24:17;7.33;;;6.73;;
14100;SDS011;7127;49.372;8.166;2022-08-19T04:26:45;7.07;;;6.47;;
14100;SDS011;7127;49.372;8.166;2022-08-19T04:29:15;8.03;;;7.27;;
14100;SDS011;7127;49.372;8.166;2022-08-19T04:31:44;7.40;;;6.80;;
14100;SDS011;7127;49.372;8.166;2022-08-19T04:34:13;6.83;;;6.23;;
14100;SDS011;7127;49.372;8.166;2022-08-19T04:36:42;6.10;;;5.43;;
14100;SDS011;7127;49.372;8.166;2022-08-19T04:39:11;6.03;;;5.53;;
14100;SDS011;7127;49.372;8.166;2022-08-19T04:41:41;6.03;;;5.53;;
14100;SDS011;7127;49.372;8.166;2022-08-19T04:44:27;5.57;;;5.13;;
14100;SDS011;7127;49.372;8.166;2022-08-19T04:46:56;5.17;;;4.67;;
14100;SDS011;7127;49.372;8.166;2022-08-19T04:49:23;5.17;;;4.77;;
14100;SDS011;7127;49.372;8.166;2022-08-19T04:51:52;5.53;;;5.10;;
14100;SDS011;7127;49.372;8.166;2022-08-19T04:54:21;5.57;;;5.07;;
14100;SDS011;7127;49.372;8.166;2022-08-19T04:56:50;6.10;;;5.60;;
14100;SDS011;7127;49.372;8.166;2022-08-19T04:59:17;5.50;;;5.00;;
14100;SDS011;7127;49.372;8.166;2022-08-19T05:01:47;5.50;;;5.10;;
14100;SDS011;7127;49.372;8.166;2022-08-19T05:04:15;5.70;;;5.20;;
14100;SDS011;7127;49.372;8.166;2022-08-19T05:06:44;6.80;;;6.20;;
14100;SDS011;7127;49.372;8.166;2022-08-19T05:09:12;6.53;;;5.70;;
14100;SDS011;7127;49.372;8.166;2022-08-19T05:11:40;6.70;;;6.10;;
14100;SDS011;7127;49.372;8.166;2022-08-19T05:14:09;6.80;;;6.20;;
14100;SDS011;7127;49.372;8.166;2022-08-19T05:16:38;7.27;;;6.67;;
14100;SDS011;7127;49.372;8.166;2022-08-19T05:19:07;6.17;;;5.67;;
14100;SDS011;7127;49.372;8.166;2022-08-19T05:21:51;7.10;;;6.40;;
14100;SDS011;7127;49.372;8.166;2022-08-19T05:24:37;6.90;;;6.30;;
14100;SDS011;7127;49.372;8.166;2022-08-19T05:27:04;6.03;;;5.43;;
14100;SDS011;7127;49.372;8.166;2022-08-19T05:29:32;6.77;;;6.17;;
14100;SDS011;7127;49.372;8.166;2022-08-19T05:32:00;7.43;;;6.77;;
14100;SDS011;7127;49.372;8.166;2022-08-19T05:34:31;7.10;;;6.50;;
14100;SDS011;7127;49.372;8.166;2022-08-19T05:36:59;6.67;;;5.30;;
14100;SDS011;7127;49.372;8.166;2022-08-19T05:39:30;6.50;;;5.67;;
14100;SDS011;7127;49.372;8.166;2022-08-19T05:41:59;6.10;;;5.50;;
14100;SDS011;7127;49.372;8.166;2022-08-19T05:44:30;6.30;;;5.70;;
14100;SDS011;7127;49.372;8.166;2022-08-19T05:46:58;5.97;;;5.47;;
14100;SDS011;7127;49.372;8.166;2022-08-19T05:49:27;5.50;;;5.10;;
14100;SDS011;7127;49.372;8.166;2022-08-19T05:51:56;6.20;;;5.60;;
14100;SDS011;7127;49.372;8.166;2022-08-19T05:54:24;5.10;;;4.60;;
14100;SDS011;7127;49.372;8.166;2022-08-19T05:56:52;5.63;;;5.13;;
14100;SDS011;7127;49.372;8.166;2022-08-19T05:59:19;6.20;;;5.70;;
14100;SDS011;7127;49.372;8.166;2022-08-19T06:01:49;5.93;;;5.43;;
14100;SDS011;7127;49.372;8.166;2022-08-19T06:04:17;6.33;;;5.73;;
14100;SDS011;7127;49.372;8.166;2022-08-19T06:06:45;5.73;;;5.23;;
14100;SDS011;7127;49.372;8.166;2022-08-19T06:09:14;5.37;;;4.90;;
14100;SDS011;7127;49.372;8.166;2022-08-19T06:11:42;5.13;;;4.73;;
14100;SDS011;7127;49.372;8.166;2022-08-19T06:14:12;4.70;;;4.30;;
14100;SDS011;7127;49.372;8.166;2022-08-19T06:16:41;6.20;;;5.70;;
14100;SDS011;7127;49.372;8.166;2022-08-19T06:19:11;4.60;;;4.23;;
14100;SDS011;7127;49.372;8.166;2022-08-19T06:21:41;6.50;;;5.83;;
14100;SDS011;7127;49.372;8.166;2022-08-19T06:24:11;5.97;;;5.37;;
14100;SDS011;7127;49.372;8.166;2022-08-19T06:26:41;6.83;;;4.60;;
14100;SDS011;7127;49.372;8.166;2022-08-19T06:29:12;5.40;;;4.67;;
14100;SDS011;7127;49.372;8.166;2022-08-19T06:31:41;5.67;;;5.17;;
14100;SDS011;7127;49.372;8.166;2022-08-19T06:34:10;5.07;;;4.47;;
14100;SDS011;7127;49.372;8.166;2022-08-19T06:36:38;5.53;;;5.07;;
14100;SDS011;7127;49.372;8.166;2022-08-19T06:39:09;5.07;;;4.67;;
14100;SDS011;7127;49.372;8.166;2022-08-19T07:25:32;4.63;;;4.23;;
14100;SDS011;7127;49.372;8.166;2022-08-19T07:28:00;4.50;;;4.10;;
14100;SDS011;7127;49.372;8.166;2022-08-19T07:30:36;4.90;;;4.50;;
14100;SDS011;7127;49.372;8.166;2022-08-19T07:33:05;5.60;;;5.10;;
14100;SDS011;7127;49.372;8.166;2022-08-19T07:38:08;4.53;;;4.13;;
14100;SDS011;7127;49.372;8.166;2022-08-19T07:40:36;3.90;;;3.60;;
14100;SDS011;7127;49.372;8.166;2022-08-19T07:43:05;5.40;;;4.90;;
14100;SDS011;7127;49.372;8.166;2022-08-19T07:45:31;3.93;;;3.63;;
14100;SDS011;7127;49.372;8.166;2022-08-19T07:47:58;4.87;;;4.47;;
14100;SDS011;7127;49.372;8.166;2022-08-19T07:50:26;6.20;;;4.97;;
14100;SDS011;7127;49.372;8.166;2022-08-19T07:52:53;5.07;;;4.50;;
14100;SDS011;7127;49.372;8.166;2022-08-19T07:55:22;5.30;;;4.80;;
14100;SDS011;7127;49.372;8.166;2022-08-19T07:57:52;4.50;;;4.10;;
14100;SDS011;7127;49.372;8.166;2022-08-19T08:00:19;3.67;;;3.38;;
14100;SDS011;7127;49.372;8.166;2022-08-19T08:02:46;4.67;;;4.30;;
14100;SDS011;7127;49.372;8.166;2022-08-19T08:05:13;4.47;;;4.07;;
14100;SDS011;7127;49.372;8.166;2022-08-19T08:07:58;4.47;;;4.07;;
14100;SDS011;7127;49.372;8.166;2022-08-19T08:10:43;4.50;;;4.10;;
14100;SDS011;7127;49.372;8.166;2022-08-19T08:13:11;4.18;;;3.88;;
14100;SDS011;7127;49.372;8.166;2022-08-19T08:15:40;4.60;;;4.20;;
14100;SDS011;7127;49.372;8.166;2022-08-19T08:18:11;5.03;;;4.63;;
14100;SDS011;7127;49.372;8.166;2022-08-19T08:20:38;5.07;;;3.95;;
14100;SDS011;7127;49.372;8.166;2022-08-19T08:23:05;4.80;;;4.30;;
14100;SDS011;7127;49.372;8.166;2022-08-19T08:25:51;4.70;;;4.30;;
14100;SDS011;7127;49.372;8.166;2022-08-19T08:28:22;3.83;;;3.53;;
14100;SDS011;7127;49.372;8.166;2022-08-19T08:30:50;4.05;;;3.70;;
14100;SDS011;7127;49.372;8.166;2022-08-19T08:33:18;4.47;;;4.00;;
14100;SDS011;7127;49.372;8.166;2022-08-19T08:35:46;4.60;;;4.10;;
14100;SDS011;7127;49.372;8.166;2022-08-19T08:38:15;4.45;;;3.60;;
14100;SDS011;7127;49.372;8.166;2022-08-19T08:40:44;3.90;;;3.60;;
14100;SDS011;7127;49.372;8.166;2022-08-19T08:43:19;3.72;;;3.42;;
14100;SDS011;7127;49.372;8.166;2022-08-19T08:45:55;3.50;;;3.20;;
14100;SDS011;7127;49.372;8.166;2022-08-19T08:48:33;5.45;;;4.45;;
14100;SDS011;7127;49.372;8.166;2022-08-19T08:51:05;4.15;;;3.85;;
14100;SDS011;7127;49.372;8.166;2022-08-19T08:53:36;4.25;;;3.85;;
14100;SDS011;7127;49.372;8.166;2022-08-19T08:56:06;3.70;;;3.40;;
14100;SDS011;7127;49.372;8.166;2022-08-19T08:58:42;3.50;;;3.20;;
14100;SDS011;7127;49.372;8.166;2022-08-19T09:01:15;3.83;;;3.42;;
14100;SDS011;7127;49.372;8.166;2022-08-19T09:03:44;3.88;;;3.50;;
14100;SDS011;7127;49.372;8.166;2022-08-19T09:06:22;4.53;;;3.55;;
14100;SDS011;7127;49.372;8.166;2022-08-19T09:09:00;4.22;;;3.83;;
14100;SDS011;7127;49.372;8.166;2022-08-19T09:11:50;3.90;;;3.60;;
14100;SDS011;7127;49.372;8.166;2022-08-19T09:14:29;3.88;;;3.58;;
14100;SDS011;7127;49.372;8.166;2022-08-19T09:17:03;4.63;;;4.22;;
14100;SDS011;7127;49.372;8.166;2022-08-19T09:19:33;3.90;;;3.40;;
14100;SDS011;7127;49.372;8.166;2022-08-19T09:22:01;4.70;;;3.95;;
14100;SDS011;7127;49.372;8.166;2022-08-19T09:24:28;4.53;;;4.15;;
14100;SDS011;7127;49.372;8.166;2022-08-19T09:27:00;4.63;;;3.60;;
14100;SDS011;7127;49.372;8.166;2022-08-19T09:29:30;3.13;;;2.92;;
14100;SDS011;7127;49.372;8.166;2022-08-19T09:31:57;3.83;;;3.55;;
14100;SDS011;7127;49.372;8.166;2022-08-19T09:34:24;3.83;;;3.53;;
14100;SDS011;7127;49.372;8.166;2022-08-19T09:36:54;3.88;;;3.58;;
14100;SDS011;7127;49.372;8.166;2022-08-19T09:39:23;4.03;;;3.67;;
14100;SDS011;7127;49.372;8.166;2022-08-19T09:41:50;6.60;;;6.00;;
14100;SDS011;7127;49.372;8.166;2022-08-19T09:44:17;5.10;;;3.60;;
14100;SDS011;7127;49.372;8.166;2022-08-19T09:46:47;3.42;;;3.08;;
14100;SDS011;7127;49.372;8.166;2022-08-19T09:49:16;3.92;;;3.63;;
14100;SDS011;7127;49.372;8.166;2022-08-19T09:51:44;3.42;;;2.80;;
14100;SDS011;7127;49.372;8.166;2022-08-19T09:54:13;4.47;;;3.80;;
14100;SDS011;7127;49.372;8.166;2022-08-19T09:56:41;4.18;;;3.85;;
14100;SDS011;7127;49.372;8.166;2022-08-19T09:59:09;3.03;;;2.83;;
14100;SDS011;7127;49.372;8.166;2022-08-19T10:01:38;3.03;;;2.78;;
14100;SDS011;7127;49.372;8.166;2022-08-19T10:09:30;6.00;;;3.40;;
14100;SDS011;7127;49.372;8.166;2022-08-19T10:11:58;3.33;;;3.03;;
14100;SDS011;7127;49.372;8.166;2022-08-19T10:14:26;3.70;;;3.40;;
14100;SDS011;7127;49.372;8.166;2022-08-19T10:16:53;3.45;;;3.15;;
14100;SDS011;7127;49.372;8.166;2022-08-19T10:19:21;3.88;;;3.42;;
14100;SDS011;7127;49.372;8.166;2022-08-19T10:21:49;3.53;;;3.30;;
14100;SDS011;7127;49.372;8.166;2022-08-19T10:24:16;3.90;;;3.58;;
14100;SDS011;7127;49.372;8.166;2022-08-19T10:26:46;3.60;;;3.30;;
14100;SDS011;7127;49.372;8.166;2022-08-19T10:29:13;3.60;;;2.90;;
14100;SDS011;7127;49.372;8.166;2022-08-19T10:31:41;4.38;;;2.90;;
14100;SDS011;7127;49.372;8.166;2022-08-19T10:34:09;2.95;;;2.75;;
14100;SDS011;7127;49.372;8.166;2022-08-19T10:36:36;5.03;;;3.13;;
14100;SDS011;7127;49.372;8.166;2022-08-19T10:39:04;4.43;;;3.90;;
14100;SDS011;7127;49.372;8.166;2022-08-19T10:41:35;3.42;;;3.13;;
14100;SDS011;7127;49.372;8.166;2022-08-19T10:44:06;3.30;;;3.10;;
14100;SDS011;7127;49.372;8.166;2022-08-19T10:46:35;3.22;;;3.03;;
14100;SDS011;7127;49.372;8.166;2022-08-19T10:49:08;4.18;;;3.88;;
14100;SDS011;7127;49.372;8.166;2022-08-19T10:51:37;4.22;;;3.90;;
14100;SDS011;7127;49.372;8.166;2022-08-19T10:54:22;3.80;;;3.50;;
14100;SDS011;7127;49.372;8.166;2022-08-19T10:57:09;4.78;;;4.18;;
14100;SDS011;7127;49.372;8.166;2022-08-19T10:59:37;3.95;;;3.55;;
14100;SDS011;7127;49.372;8.166;2022-08-19T11:02:06;3.50;;;3.20;;
14100;SDS011;7127;49.372;8.166;2022-08-19T11:04:37;3.60;;;3.22;;
14100;SDS011;7127;49.372;8.166;2022-08-19T11:07:06;3.70;;;3.40;;
14100;SDS011;7127;49.372;8.166;2022-08-19T11:17:22;3.28;;;3.08;;
14100;SDS011;7127;49.372;8.166;2022-08-19T11:19:51;3.40;;;3.10;;
14100;SDS011;7127;49.372;8.166;2022-08-19T11:22:18;4.45;;;3.72;;
14100;SDS011;7127;49.372;8.166;2022-08-19T11:24:45;3.60;;;3.30;;
14100;SDS011;7127;49.372;8.166;2022-08-19T11:27:13;3.25;;;3.05;;
14100;SDS011;7127;49.372;8.166;2022-08-19T11:29:40;3.28;;;2.97;;
14100;SDS011;7127;49.372;8.166;2022-08-19T11:32:08;3.20;;;2.70;;
14100;SDS011;7127;49.372;8.166;2022-08-19T11:34:39;2.80;;;2.60;;
14100;SDS011;7127;49.372;8.166;2022-08-19T11:37:06;3.30;;;3.00;;
14100;SDS011;7127;49.372;8.166;2022-08-19T11:39:34;4.70;;;3.42;;
14100;SDS011;7127;49.372;8.166;2022-08-19T11:42:02;3.58;;;3.38;;
14100;SDS011;7127;49.372;8.166;2022-08-19T11:44:52;3.67;;;3.38;;
14100;SDS011;7127;49.372;8.166;2022-08-19T11:47:19;4.85;;;3.85;;
14100;SDS011;7127;49.372;8.166;2022-08-19T11:49:48;4.28;;;3.88;;
14100;SDS011;7127;49.372;8.166;2022-08-19T11:52:15;4.00;;;3.70;;
14100;SDS011;7127;49.372;8.166;2022-08-19T11:54:42;3.47;;;3.17;;
14100;SDS011;7127;49.372;8.166;2022-08-19T11:57:09;2.90;;;2.70;;
14100;SDS011;7127;49.372;8.166;2022-08-19T11:59:36;2.60;;;2.40;;
14100;SDS011;7127;49.372;8.166;2022-08-19T12:02:03;2.40;;;2.20;;
14100;SDS011;7127;49.372;8.166;2022-08-19T12:04:30;2.47;;;2.28;;
14100;SDS011;7127;49.372;8.166;2022-08-19T12:06:59;2.05;;;1.95;;
14100;SDS011;7127;49.372;8.166;2022-08-19T12:09:26;2.60;;;2.40;;
14100;SDS011;7127;49.372;8.166;2022-08-19T12:11:53;2.25;;;2.15;;
14100;SDS011;7127;49.372;8.166;2022-08-19T12:14:21;2.17;;;2.08;;
14100;SDS011;7127;49.372;8.166;2022-08-19T12:16:48;2.20;;;2.03;;
14100;SDS011;7127;49.372;8.166;2022-08-19T12:19:15;1.77;;;1.67;;
14100;SDS011;7127;49.372;8.166;2022-08-19T12:21:42;1.90;;;1.80;;
14100;SDS011;7127;49.372;8.166;2022-08-19T12:24:10;2.50;;;1.73;;
14100;SDS011;7127;49.372;8.166;2022-08-19T12:26:37;1.70;;;1.60;;
14100;SDS011;7127;49.372;8.166;2022-08-19T12:29:04;2.05;;;1.95;;
14100;SDS011;7127;49.372;8.166;2022-08-19T12:31:33;1.80;;;1.70;;
14100;SDS011;7127;49.372;8.166;2022-08-19T12:34:00;2.30;;;2.10;;
14100;SDS011;7127;49.372;8.166;2022-08-19T12:36:27;2.05;;;1.95;;
14100;SDS011;7127;49.372;8.166;2022-08-19T12:38:55;2.20;;;2.00;;
14100;SDS011;7127;49.372;8.166;2022-08-19T12:41:26;2.35;;;2.15;;
14100;SDS011;7127;49.372;8.166;2022-08-19T12:43:53;2.08;;;1.98;;
14100;SDS011;7127;49.372;8.166;2022-08-19T12:46:20;1.85;;;1.75;;
14100;SDS011;7127;49.372;8.166;2022-08-19T12:48:47;1.80;;;1.70;;
14100;SDS011;7127;49.372;8.166;2022-08-19T12:51:15;2.38;;;2.17;;
14100;SDS011;7127;49.372;8.166;2022-08-19T12:53:44;2.03;;;1.80;;
14100;SDS011;7127;49.372;8.166;2022-08-19T12:56:12;2.00;;;1.80;;
14100;SDS011;7127;49.372;8.166;2022-08-19T12:58:41;1.65;;;1.50;;
14100;SDS011;7127;49.372;8.166;2022-08-19T13:01:10;1.50;;;1.40;;
14100;SDS011;7127;49.372;8.166;2022-08-19T13:03:38;1.88;;;1.77;;
14100;SDS011;7127;49.372;8.166;2022-08-19T13:06:06;3.05;;;1.98;;
14100;SDS011;7127;49.372;8.166;2022-08-19T13:08:33;1.92;;;1.73;;
14100;SDS011;7127;49.372;8.166;2022-08-19T13:11:06;1.85;;;1.40;;
14100;SDS011;7127;49.372;8.166;2022-08-19T13:13:35;1.52;;;1.42;;
14100;SDS011;7127;49.372;8.166;2022-08-19T13:16:07;1.80;;;1.70;;
14100;SDS011;7127;49.372;8.166;2022-08-19T13:18:35;1.55;;;1.45;;
14100;SDS011;7127;49.372;8.166;2022-08-19T13:21:04;1.50;;;1.40;;
14100;SDS011;7127;49.372;8.166;2022-08-19T13:23:32;1.25;;;1.15;;
14100;SDS011;7127;49.372;8.166;2022-08-19T13:26:01;1.58;;;1.48;;
14100;SDS011;7127;49.372;8.166;2022-08-19T13:28:30;1.67;;;1.58;;
14100;SDS011;7127;49.372;8.166;2022-08-19T13:31:15;1.60;;;1.50;;
14100;SDS011;7127;49.372;8.166;2022-08-19T13:34:00;1.67;;;1.58;;
14100;SDS011;7127;49.372;8.166;2022-08-19T13:36:27;1.42;;;1.33;;
14100;SDS011;7127;49.372;8.166;2022-08-19T13:38:54;1.55;;;1.45;;
14100;SDS011;7127;49.372;8.166;2022-08-19T13:41:21;1.70;;;1.60;;
14100;SDS011;7127;49.372;8.166;2022-08-19T13:43:48;1.75;;;1.65;;
14100;SDS011;7127;49.372;8.166;2022-08-19T13:46:17;2.28;;;2.08;;
14100;SDS011;7127;49.372;8.166;2022-08-19T13:48:45;1.90;;;1.77;;
14100;SDS011;7127;49.372;8.166;2022-08-19T13:51:13;1.58;;;1.48;;
14100;SDS011;7127;49.372;8.166;2022-08-19T13:53:41;1.73;;;1.63;;
14100;SDS011;7127;49.372;8.166;2022-08-19T13:56:10;1.60;;;1.50;;
14100;SDS011;7127;49.372;8.166;2022-08-19T13:58:39;1.52;;;1.42;;
14100;SDS011;7127;49.372;8.166;2022-08-19T14:01:06;1.60;;;1.50;;
14100;SDS011;7127;49.372;8.166;2022-08-19T14:03:35;1.40;;;1.30;;
14100;SDS011;7127;49.372;8.166;2022-08-19T14:06:02;1.50;;;1.40;;
14100;SDS011;7127;49.372;8.166;2022-08-19T14:08:29;2.15;;;1.58;;
14100;SDS011;7127;49.372;8.166;2022-08-19T14:10:57;1.65;;;1.55;;
14100;SDS011;7127;49.372;8.166;2022-08-19T14:13:24;1.95;;;1.83;;
14100;SDS011;7127;49.372;8.166;2022-08-19T14:15:51;1.95;;;1.70;;
14100;SDS011;7127;49.372;8.166;2022-08-19T14:18:18;2.05;;;1.90;;
14100;SDS011;7127;49.372;8.166;2022-08-19T14:20:47;1.50;;;1.40;;
14100;SDS011;7127;49.372;8.166;2022-08-19T14:23:14;1.50;;;1.40;;
14100;SDS011;7127;49.372;8.166;2022-08-19T14:25:41;2.38;;;1.63;;
14100;SDS011;7127;49.372;8.166;2022-08-19T14:28:08;1.58;;;1.48;;
14100;SDS011;7127;49.372;8.166;2022-08-19T14:30:36;1.80;;;1.45;;
14100;SDS011;7127;49.372;8.166;2022-08-19T14:33:04;1.50;;;1.40;;
14100;SDS011;7127;49.372;8.166;2022-08-19T14:35:33;1.70;;;1.60;;
14100;SDS011;7127;49.372;8.166;2022-08-19T14:38:02;1.50;;;1.40;;
14100;SDS011;7127;49.372;8.166;2022-08-19T14:40:30;2.80;;;1.67;;
14100;SDS011;7127;49.372;8.166;2022-08-19T14:43:00;1.63;;;1.52;;
14100;SDS011;7127;49.372;8.166;2022-08-19T14:45:31;1.80;;;1.70;;
14100;SDS011;7127;49.372;8.166;2022-08-19T14:47:59;1.67;;;1.58;;
14100;SDS011;7127;49.372;8.166;2022-08-19T14:50:26;1.50;;;1.40;;
14100;SDS011;7127;49.372;8.166;2022-08-19T14:52:57;1.67;;;1.58;;
14100;SDS011;7127;49.372;8.166;2022-08-19T14:55:27;1.88;;;1.67;;
14100;SDS011;7127;49.372;8.166;2022-08-19T14:57:54;1.92;;;1.80;;
14100;SDS011;7127;49.372;8.166;2022-08-19T15:00:22;2.20;;;2.00;;
14100;SDS011;7127;49.372;8.166;2022-08-19T15:02:49;2.30;;;2.10;;
14100;SDS011;7127;49.372;8.166;2022-08-19T15:05:16;2.10;;;1.90;;
14100;SDS011;7127;49.372;8.166;2022-08-19T15:07:43;1.88;;;1.75;;
14100;SDS011;7127;49.372;8.166;2022-08-19T15:10:11;2.20;;;2.00;;
14100;SDS011;7127;49.372;8.166;2022-08-19T15:12:41;2.10;;;2.00;;
14100;SDS011;7127;49.372;8.166;2022-08-19T15:15:10;1.80;;;1.70;;
14100;SDS011;7127;49.372;8.166;2022-08-19T15:17:39;2.20;;;2.00;;
14100;SDS011;7127;49.372;8.166;2022-08-19T15:20:07;2.03;;;1.92;;
14100;SDS011;7127;49.372;8.166;2022-08-19T15:22:36;3.53;;;2.13;;
14100;SDS011;7127;49.372;8.166;2022-08-19T15:25:04;2.13;;;2.00;;
14100;SDS011;7127;49.372;8.166;2022-08-19T15:27:32;2.17;;;2.00;;
14100;SDS011;7127;49.372;8.166;2022-08-19T15:30:02;1.90;;;1.80;;
14100;SDS011;7127;49.372;8.166;2022-08-19T15:32:31;2.10;;;2.00;;
14100;SDS011;7127;49.372;8.166;2022-08-19T15:34:58;1.70;;;1.60;;
14100;SDS011;7127;49.372;8.166;2022-08-19T15:37:26;1.95;;;1.85;;
14100;SDS011;7127;49.372;8.166;2022-08-19T15:39:53;1.73;;;1.63;;
14100;SDS011;7127;49.372;8.166;2022-08-19T15:42:20;2.00;;;1.90;;
14100;SDS011;7127;49.372;8.166;2022-08-19T15:44:48;3.67;;;1.70;;
14100;SDS011;7127;49.372;8.166;2022-08-19T15:47:18;2.00;;;1.90;;
14100;SDS011;7127;49.372;8.166;2022-08-19T15:49:45;2.90;;;2.10;;
14100;SDS011;7127;49.372;8.166;2022-08-19T15:52:12;1.75;;;1.63;;
14100;SDS011;7127;49.372;8.166;2022-08-19T15:54:39;3.50;;;1.80;;
14100;SDS011;7127;49.372;8.166;2022-08-19T15:57:06;2.08;;;1.98;;
14100;SDS011;7127;49.372;8.166;2022-08-19T15:59:51;1.80;;;1.70;;
14100;SDS011;7127;49.372;8.166;2022-08-19T16:02:37;1.98;;;1.88;;
14100;SDS011;7127;49.372;8.166;2022-08-19T16:05:21;2.40;;;2.20;;
14100;SDS011;7127;49.372;8.166;2022-08-19T16:08:08;1.90;;;1.80;;
14100;SDS011;7127;49.372;8.166;2022-08-19T16:10:35;2.45;;;2.25;;
14100;SDS011;7127;49.372;8.166;2022-08-19T16:13:04;1.70;;;1.60;;